createdAt,value
2019-02-25T00:03:09.689Z,18.00
2019-02-25T00:08:05.669Z,17.17
2019-02-25T00:13:01.519Z,17.90
2019-02-25T00:17:57.487Z,17.37
2019-02-25T00:22:53.643Z,17.00
2019-02-25T00:27:50.729Z,19.80
2019-02-25T00:32:47.585Z,17.63
2019-02-25T00:37:43.416Z,16.70
2019-02-25T00:42:39.373Z,16.43
2019-02-25T00:47:35.183Z,16.37
2019-02-25T00:52:31.110Z,17.90
2019-02-25T00:57:28.271Z,19.87
2019-02-25T01:02:25.610Z,21.27
2019-02-25T01:07:21.622Z,14.57
2019-02-25T01:12:17.600Z,15.33
2019-02-25T01:17:13.785Z,18.13
2019-02-25T01:22:09.729Z,18.23
2019-02-25T01:27:05.960Z,18.33
2019-02-25T01:32:01.863Z,14.10
2019-02-25T01:36:57.904Z,15.13
2019-02-25T01:41:53.741Z,14.37
2019-02-25T01:46:50.704Z,14.10
2019-02-25T01:51:46.787Z,13.60
2019-02-25T01:56:42.838Z,15.23
2019-02-25T02:01:38.539Z,14.00
2019-02-25T02:06:34.372Z,15.50
2019-02-25T02:11:30.350Z,15.03
2019-02-25T02:16:26.131Z,14.40
2019-02-25T02:21:21.831Z,17.27
2019-02-25T02:26:17.600Z,15.70
2019-02-25T02:31:13.693Z,16.73
2019-02-25T02:36:11.723Z,16.07
2019-02-25T02:41:08.967Z,13.37
2019-02-25T02:46:50.557Z,14.60
2019-02-25T02:51:46.553Z,18.23
2019-02-25T02:56:42.364Z,12.83
2019-02-25T03:01:38.359Z,13.43
2019-02-25T03:06:34.299Z,11.50
2019-02-25T03:11:31.254Z,14.57
2019-02-25T03:16:27.097Z,14.40
2019-02-25T03:21:22.968Z,15.00
2019-02-25T03:26:18.805Z,18.23
2019-02-25T03:31:14.585Z,20.50
2019-02-25T03:36:10.534Z,16.47
2019-02-25T03:41:07.636Z,16.73
2019-02-25T03:46:03.591Z,16.30
2019-02-25T03:50:59.464Z,15.17
2019-02-25T03:55:55.346Z,16.90
2019-02-25T04:00:51.060Z,17.67
2019-02-25T04:05:47.168Z,16.73
2019-02-25T04:10:43.044Z,13.97
2019-02-25T04:15:42.059Z,15.27
2019-02-25T04:20:37.910Z,18.33
2019-02-25T04:25:33.885Z,15.53
2019-02-25T04:30:29.668Z,11.53
2019-02-25T04:35:25.460Z,11.20
2019-02-25T04:40:21.362Z,9.90
2019-02-25T04:45:20.447Z,9.33
2019-02-25T04:50:16.621Z,9.17
2019-02-25T04:55:12.657Z,11.03
2019-02-25T05:00:14.846Z,16.70
2019-02-25T05:05:13.208Z,18.40
2019-02-25T05:10:10.766Z,52.30
2019-02-25T05:15:07.419Z,18.73
2019-02-25T05:20:07.464Z,16.43
2019-02-25T05:25:03.310Z,19.97
2019-02-25T05:29:59.060Z,16.70
2019-02-25T05:34:54.887Z,22.10
2019-02-25T05:39:50.560Z,16.57
2019-02-25T05:44:46.290Z,18.27
2019-02-25T05:49:41.959Z,15.03
2019-02-25T05:54:37.909Z,15.40
2019-02-25T05:59:35.254Z,17.80
2019-02-25T06:04:30.948Z,18.67
2019-02-25T06:09:26.771Z,22.03
2019-02-25T06:14:23.555Z,26.50
2019-02-25T06:19:19.388Z,41.00
2019-02-25T06:24:15.142Z,17.80
2019-02-25T06:29:10.853Z,21.07
2019-02-25T06:34:06.522Z,21.63
2019-02-25T06:39:06.091Z,18.13
2019-02-25T06:44:07.228Z,28.60
2019-02-25T06:49:04.426Z,21.33
2019-02-25T06:54:01.224Z,16.23
2019-02-25T06:58:56.906Z,19.13
2019-02-25T07:04:25.437Z,22.73
2019-02-25T07:09:30.283Z,16.67
2019-02-25T07:14:37.561Z,22.13
2019-02-25T07:20:01.400Z,20.87
2019-02-25T07:25:05.889Z,26.20
2019-02-25T07:30:23.676Z,26.90
2019-02-25T07:35:37.060Z,17.73
2019-02-25T07:41:06.412Z,27.37
2019-02-25T07:46:20.676Z,25.47
2019-02-25T07:51:33.571Z,21.90
2019-02-25T07:56:43.251Z,18.60
2019-02-25T08:02:00.676Z,17.50
2019-02-25T08:07:18.217Z,18.37
2019-02-25T08:12:19.298Z,12.30
2019-02-25T08:17:40.005Z,14.77
2019-02-25T08:22:57.984Z,13.67
2019-02-25T08:28:11.983Z,11.10
2019-02-25T08:33:29.352Z,8.23
2019-02-25T08:38:43.824Z,12.03
2019-02-25T08:43:47.771Z,10.57
2019-02-25T08:48:56.221Z,12.53
2019-02-25T08:53:52.085Z,11.77
2019-02-25T08:58:48.459Z,13.13
2019-02-25T09:03:44.304Z,12.03
2019-02-25T09:08:40.118Z,12.87
2019-02-25T09:13:36.214Z,12.67
2019-02-25T09:18:32.803Z,14.77
2019-02-25T09:23:28.940Z,10.60
2019-02-25T09:28:24.747Z,14.60
2019-02-25T09:33:22.787Z,11.73
2019-02-25T09:38:18.785Z,10.63
2019-02-25T09:43:14.561Z,9.87
2019-02-25T09:48:10.448Z,12.43
2019-02-25T09:53:07.351Z,10.97
2019-02-25T09:58:03.633Z,9.67
2019-02-25T10:02:59.441Z,10.13
2019-02-25T10:07:55.365Z,13.63
2019-02-25T10:12:51.313Z,10.20
2019-02-25T10:17:47.143Z,8.67
2019-02-25T10:22:43.099Z,10.63
2019-02-25T10:27:37.073Z,14.40
2019-02-25T10:32:32.956Z,11.70
2019-02-25T10:37:28.823Z,15.67
2019-02-25T10:42:24.592Z,13.13
2019-02-25T10:47:21.446Z,10.77
2019-02-25T10:52:17.433Z,11.10
2019-02-25T10:57:17.139Z,6.97
2019-02-25T11:02:13.697Z,9.07
2019-02-25T11:07:10.743Z,7.40
2019-02-25T11:12:07.579Z,10.57
2019-02-25T11:17:03.522Z,9.00
2019-02-25T11:21:59.451Z,13.20
2019-02-25T11:26:56.983Z,15.83
2019-02-25T11:31:53.562Z,10.57
2019-02-25T11:36:52.210Z,13.93
2019-02-25T11:41:47.889Z,10.60
2019-02-25T11:46:43.689Z,15.87
2019-02-25T11:51:39.987Z,15.47
2019-02-25T11:56:35.856Z,12.70
2019-02-25T12:01:33.625Z,11.97
2019-02-25T12:06:30.876Z,13.33
2019-02-25T12:11:26.660Z,14.10
2019-02-25T12:16:22.492Z,11.13
2019-02-25T12:21:18.246Z,12.30
2019-02-25T12:26:12.292Z,11.27
2019-02-25T12:31:08.189Z,14.03
2019-02-25T12:36:03.911Z,10.37
2019-02-25T12:40:59.635Z,8.87
2019-02-25T12:45:56.408Z,11.07
2019-02-25T12:50:52.108Z,9.87
2019-02-25T12:55:48.078Z,8.10
2019-02-25T13:00:43.747Z,11.10
2019-02-25T13:05:39.657Z,7.73
2019-02-25T13:10:35.450Z,7.67
2019-02-25T13:15:31.298Z,18.70
2019-02-25T13:20:26.914Z,9.10
2019-02-25T13:25:22.710Z,14.70
2019-02-25T13:30:18.760Z,8.90
2019-02-25T13:35:14.548Z,9.37
2019-02-25T13:40:10.890Z,9.53
2019-02-25T13:45:07.393Z,8.13
2019-02-25T13:50:07.225Z,9.37
2019-02-25T13:55:14.878Z,8.77
2019-02-25T14:00:20.544Z,11.53
2019-02-25T14:05:16.587Z,10.50
2019-02-25T14:10:12.877Z,10.70
2019-02-25T14:15:09.385Z,7.57
2019-02-25T14:20:09.669Z,10.30
2019-02-25T14:25:06.681Z,9.10
2019-02-25T14:30:02.425Z,12.53
2019-02-25T14:34:58.554Z,8.50
2019-02-25T14:39:56.330Z,13.70
2019-02-25T14:44:52.280Z,7.63
2019-02-25T14:49:49.294Z,8.27
2019-02-25T14:54:45.861Z,9.63
2019-02-25T14:59:42.861Z,9.93
2019-02-25T15:04:39.703Z,11.83
2019-02-25T15:09:37.129Z,9.93
2019-02-25T15:14:36.766Z,7.87
2019-02-25T15:19:34.417Z,11.60
2019-02-25T15:24:31.086Z,7.57
2019-02-25T15:29:26.843Z,11.47
2019-02-25T15:34:22.960Z,8.00
2019-02-25T15:39:18.810Z,10.53
2019-02-25T15:44:14.587Z,8.57
2019-02-25T15:49:12.840Z,9.33
2019-02-25T15:54:10.118Z,9.57
2019-02-25T15:59:05.934Z,8.77
2019-02-25T16:04:02.926Z,10.93
2019-02-25T16:09:00.850Z,11.47
2019-02-25T16:14:00.100Z,9.37
2019-02-25T16:18:56.049Z,25.90
2019-02-25T16:23:51.967Z,14.50
2019-02-25T16:28:47.804Z,24.90
2019-02-25T16:33:43.683Z,21.17
2019-02-25T16:38:39.462Z,18.60
2019-02-25T16:43:35.447Z,15.23
2019-02-25T16:48:32.647Z,16.87
2019-02-25T16:53:30.045Z,14.83
2019-02-25T16:58:27.611Z,20.60
2019-02-25T17:03:23.850Z,15.47
2019-02-25T17:08:20.872Z,16.30
2019-02-25T17:13:17.139Z,21.17
2019-02-25T17:18:15.188Z,24.97
2019-02-25T17:23:10.779Z,30.13
2019-02-25T17:28:08.202Z,82.17
2019-02-25T17:33:15.671Z,41.23
2019-02-25T17:38:11.655Z,50.93
2019-02-25T17:43:09.092Z,24.37
2019-02-25T17:48:08.483Z,24.80
2019-02-25T17:53:07.439Z,24.13
2019-02-25T17:58:08.042Z,26.93
2019-02-25T18:03:04.265Z,24.40
2019-02-25T18:08:02.804Z,25.20
2019-02-25T18:12:59.048Z,26.13
2019-02-25T18:17:57.672Z,32.33
2019-02-25T18:22:55.972Z,32.43
2019-02-25T18:27:51.964Z,32.87
2019-02-25T18:32:48.343Z,25.67
2019-02-25T18:37:45.556Z,30.17
2019-02-25T18:42:43.183Z,28.70
2019-02-25T18:47:40.663Z,37.00
2019-02-25T18:52:38.454Z,35.27
2019-02-25T18:57:34.665Z,31.17
2019-02-25T19:02:31.397Z,24.57
2019-02-25T19:07:29.335Z,41.27
2019-02-25T19:12:26.266Z,39.93
2019-02-25T19:17:23.163Z,31.43
2019-02-25T19:22:21.329Z,34.70
2019-02-25T19:27:25.021Z,34.00
2019-02-25T19:32:22.942Z,32.83
2019-02-25T19:37:18.860Z,35.80
2019-02-25T19:42:15.389Z,57.20
2019-02-25T19:47:14.342Z,84.53
2019-02-25T19:52:12.002Z,69.63
2019-02-25T19:57:07.790Z,45.60
2019-02-25T20:02:06.776Z,43.73
2019-02-25T20:07:02.904Z,36.93
2019-02-25T20:12:01.285Z,40.10
2019-02-25T20:17:02.567Z,33.30
2019-02-25T20:21:58.025Z,34.10
2019-02-25T20:26:57.620Z,34.83
2019-02-25T20:31:52.230Z,35.17
2019-02-25T20:36:50.448Z,31.17
2019-02-25T20:41:49.858Z,112.13
2019-02-25T20:46:44.474Z,59.83
2019-02-25T20:51:40.335Z,43.37
2019-02-25T20:56:36.608Z,38.30
2019-02-25T21:01:35.235Z,35.27
2019-02-25T21:06:30.003Z,37.70
2019-02-25T21:11:27.269Z,37.33
2019-02-25T21:16:26.232Z,37.87
2019-02-25T21:21:21.732Z,58.47
2019-02-25T21:26:17.561Z,51.90
2019-02-25T21:31:14.577Z,47.97
2019-02-25T21:36:10.803Z,51.43
2019-02-25T21:41:07.490Z,47.40
2019-02-25T21:46:04.461Z,34.00
2019-02-25T21:51:02.474Z,35.67
2019-02-25T21:56:02.368Z,39.00
2019-02-25T22:00:59.093Z,35.40
2019-02-25T22:05:56.197Z,36.53
2019-02-25T22:10:58.222Z,43.63
2019-02-25T22:15:54.331Z,42.33
2019-02-25T22:20:51.440Z,46.37
2019-02-25T22:25:48.744Z,42.43
2019-02-25T22:30:45.190Z,44.13
2019-02-25T22:35:42.953Z,40.70
2019-02-25T22:40:39.886Z,41.40
2019-02-25T22:45:37.549Z,37.80
2019-02-25T22:50:35.668Z,34.90
2019-02-25T22:55:31.468Z,35.83
2019-02-25T23:00:42.200Z,40.03
2019-02-25T23:05:40.928Z,33.10
2019-02-25T23:10:38.109Z,38.87
2019-02-25T23:15:33.787Z,36.60
2019-02-25T23:20:31.665Z,36.50
2019-02-25T23:25:27.222Z,36.43
2019-02-25T23:30:24.363Z,38.80
2019-02-25T23:35:20.849Z,38.30
2019-02-25T23:40:17.730Z,37.23
2019-02-25T23:45:15.537Z,32.67
2019-02-25T23:50:13.537Z,35.27
2019-02-25T23:55:12.205Z,34.90
